createdAt,value
2019-05-06T00:01:50.350Z,1.10
2019-05-06T00:04:21.369Z,1.35
2019-05-06T00:06:54.607Z,1.32
2019-05-06T00:09:25.316Z,1.10
2019-05-06T00:11:56.474Z,1.10
2019-05-06T00:14:27.541Z,0.90
2019-05-06T00:16:58.896Z,0.77
2019-05-06T00:19:29.955Z,1.03
2019-05-06T00:22:00.974Z,1.10
2019-05-06T00:24:38.296Z,1.40
2019-05-06T00:27:15.290Z,1.10
2019-05-06T00:29:47.424Z,1.20
2019-05-06T00:32:18.614Z,0.90
2019-05-06T00:34:49.680Z,1.10
2019-05-06T00:37:20.677Z,0.90
2019-05-06T00:40:00.425Z,0.97
2019-05-06T00:42:34.691Z,1.20
2019-05-06T00:45:07.916Z,0.98
2019-05-06T00:47:39.939Z,1.20
2019-05-06T00:50:11.203Z,1.30
2019-05-06T00:52:44.580Z,1.40
2019-05-06T00:55:15.138Z,1.70
2019-05-06T00:57:46.538Z,1.07
2019-05-06T01:00:29.774Z,1.20
2019-05-06T01:03:01.356Z,1.55
2019-05-06T01:05:33.734Z,0.90
2019-05-06T01:08:05.218Z,1.57
2019-05-06T01:10:36.359Z,1.47
2019-05-06T01:13:26.379Z,1.40
2019-05-06T01:15:57.428Z,1.57
2019-05-06T01:18:28.466Z,0.97
2019-05-06T01:21:14.572Z,1.17
2019-05-06T01:23:46.737Z,1.30
2019-05-06T01:26:19.002Z,1.57
2019-05-06T01:28:50.133Z,1.80
2019-05-06T01:31:21.262Z,1.40
2019-05-06T01:33:53.531Z,2.10
2019-05-06T01:36:25.105Z,1.30
2019-05-06T01:39:08.556Z,1.43
2019-05-06T01:41:54.786Z,2.02
2019-05-06T01:44:25.788Z,1.20
2019-05-06T01:46:56.858Z,1.50
2019-05-06T01:49:27.958Z,1.35
2019-05-06T01:51:59.109Z,1.27
2019-05-06T01:54:30.119Z,1.60
2019-05-06T01:57:01.114Z,1.70
2019-05-06T01:59:34.047Z,1.27
2019-05-06T02:02:05.811Z,1.60
2019-05-06T02:04:36.908Z,1.23
2019-05-06T02:07:07.905Z,1.70
2019-05-06T02:09:40.105Z,1.82
2019-05-06T02:12:11.259Z,1.27
2019-05-06T02:14:43.667Z,1.23
2019-05-06T02:17:14.762Z,1.77
2019-05-06T02:19:45.857Z,2.00
2019-05-06T02:22:25.652Z,1.70
2019-05-06T02:25:00.227Z,1.60
2019-05-06T02:27:31.240Z,1.77
2019-05-06T02:30:15.281Z,1.47
2019-05-06T02:32:55.741Z,1.93
2019-05-06T02:35:36.534Z,1.70
2019-05-06T02:38:26.774Z,1.70
2019-05-06T02:40:55.748Z,1.60
2019-05-06T02:43:26.884Z,1.47
2019-05-06T02:45:58.638Z,1.63
2019-05-06T02:48:47.245Z,1.87
2019-05-06T02:51:24.176Z,1.83
2019-05-06T02:53:54.516Z,2.10
2019-05-06T02:56:25.524Z,2.33
2019-05-06T02:58:56.588Z,1.90
2019-05-06T03:01:27.581Z,1.40
2019-05-06T03:03:58.673Z,2.57
2019-05-06T03:06:29.691Z,2.00
2019-05-06T03:09:03.123Z,1.87
2019-05-06T03:11:35.830Z,2.00
2019-05-06T03:14:06.907Z,2.30
2019-05-06T03:16:37.988Z,2.33
2019-05-06T03:19:13.185Z,2.42
2019-05-06T03:22:05.250Z,2.10
2019-05-06T03:24:43.855Z,2.10
2019-05-06T03:27:14.914Z,1.96
2019-05-06T03:29:46.001Z,2.63
2019-05-06T03:32:25.257Z,2.10
2019-05-06T03:35:13.631Z,2.80
2019-05-06T03:37:24.114Z,2.07
2019-05-06T03:39:55.682Z,1.80
2019-05-06T03:42:26.885Z,2.63
2019-05-06T03:45:04.182Z,2.60
2019-05-06T03:47:54.979Z,1.77
2019-05-06T03:50:26.076Z,1.90
2019-05-06T03:52:57.638Z,2.47
2019-05-06T03:55:29.314Z,2.47
2019-05-06T03:58:03.891Z,2.00
2019-05-06T04:00:35.542Z,3.00
2019-05-06T04:03:07.605Z,2.07
2019-05-06T04:05:39.761Z,3.23
2019-05-06T04:08:12.714Z,2.50
2019-05-06T04:10:44.711Z,2.07
2019-05-06T04:13:15.954Z,2.57
2019-05-06T04:16:03.801Z,2.57
2019-05-06T04:18:36.748Z,2.05
2019-05-06T04:21:27.426Z,2.95
2019-05-06T04:24:15.667Z,2.90
2019-05-06T04:26:58.318Z,2.50
2019-05-06T04:29:29.546Z,3.03
2019-05-06T04:32:03.471Z,2.08
2019-05-06T04:34:35.008Z,2.10
2019-05-06T04:37:06.354Z,2.50
2019-05-06T04:39:38.061Z,2.50
2019-05-06T04:42:10.415Z,3.37
2019-05-06T04:44:43.833Z,2.37
2019-05-06T04:47:16.406Z,1.97
2019-05-06T04:49:47.550Z,2.07
2019-05-06T04:52:18.844Z,2.23
2019-05-06T04:54:53.190Z,2.07
2019-05-06T04:57:24.020Z,2.13
2019-05-06T04:59:56.495Z,2.47
2019-05-06T05:02:29.335Z,2.93
2019-05-06T05:05:04.130Z,3.26
2019-05-06T05:07:34.512Z,2.98
2019-05-06T05:10:12.567Z,2.40
2019-05-06T05:13:23.176Z,2.20
2019-05-06T05:16:12.827Z,2.17
2019-05-06T05:18:56.689Z,2.50
2019-05-06T05:21:27.845Z,2.47
2019-05-06T05:23:59.034Z,2.53
2019-05-06T05:26:32.263Z,2.50
2019-05-06T05:29:03.754Z,3.10
2019-05-06T05:31:35.174Z,1.87
2019-05-06T05:34:06.416Z,2.58
2019-05-06T05:36:37.559Z,2.52
2019-05-06T05:39:08.718Z,3.10
2019-05-06T05:41:42.752Z,2.95
2019-05-06T05:44:26.150Z,3.23
2019-05-06T05:46:57.402Z,2.40
2019-05-06T05:49:39.311Z,2.47
2019-05-06T05:52:12.630Z,2.30
2019-05-06T05:54:43.987Z,2.87
2019-05-06T05:57:15.183Z,2.77
2019-05-06T05:59:46.256Z,2.70
2019-05-06T06:02:17.583Z,2.75
2019-05-06T06:04:54.738Z,2.90
2019-05-06T06:07:22.914Z,3.27
2019-05-06T06:10:04.019Z,2.87
2019-05-06T06:12:35.279Z,2.50
2019-05-06T06:15:25.766Z,2.42
2019-05-06T06:18:33.366Z,2.57
2019-05-06T06:21:38.383Z,2.47
2019-05-06T06:24:22.620Z,3.12
2019-05-06T06:26:54.097Z,2.62
2019-05-06T06:29:25.392Z,2.45
2019-05-06T06:32:14.297Z,2.20
2019-05-06T06:35:07.485Z,2.62
2019-05-06T06:37:45.662Z,2.33
2019-05-06T06:40:18.899Z,2.30
2019-05-06T06:42:53.684Z,2.62
2019-05-06T06:45:24.702Z,2.65
2019-05-06T06:47:56.033Z,3.42
2019-05-06T06:50:27.249Z,2.70
2019-05-06T06:52:58.381Z,2.63
2019-05-06T06:55:31.732Z,2.60
2019-05-06T06:58:23.359Z,2.33
2019-05-06T07:01:14.833Z,2.47
2019-05-06T07:04:11.238Z,1.80
2019-05-06T07:06:45.140Z,2.83
2019-05-06T07:09:16.210Z,2.23
2019-05-06T07:11:47.338Z,2.67
2019-05-06T07:18:14.568Z,1.50
2019-05-06T07:20:54.094Z,1.95
2019-05-06T07:23:25.705Z,1.73
2019-05-06T07:25:57.223Z,3.40
2019-05-06T07:28:28.411Z,2.17
2019-05-06T07:31:16.697Z,1.73
2019-05-06T07:33:33.524Z,2.63
2019-05-06T07:36:05.235Z,2.30
2019-05-06T07:38:36.335Z,1.80
2019-05-06T07:41:14.714Z,1.50
2019-05-06T07:44:12.918Z,2.02
2019-05-06T07:46:52.550Z,2.00
2019-05-06T07:49:23.702Z,1.47
2019-05-06T07:51:54.796Z,1.83
2019-05-06T07:54:25.864Z,1.60
2019-05-06T07:56:56.955Z,1.90
2019-05-06T07:59:27.947Z,2.00
2019-05-06T08:01:58.943Z,1.60
2019-05-06T08:04:32.305Z,1.60
2019-05-06T08:07:03.216Z,1.43
2019-05-06T08:09:34.434Z,2.20
2019-05-06T08:12:05.881Z,1.50
2019-05-06T08:14:43.510Z,2.90
2019-05-06T08:17:38.599Z,1.70
2019-05-06T08:20:12.908Z,1.63
2019-05-06T08:23:12.700Z,2.03
2019-05-06T08:25:46.444Z,2.03
2019-05-06T08:28:17.673Z,2.77
2019-05-06T08:30:49.105Z,1.47
2019-05-06T08:33:21.980Z,1.47
2019-05-06T08:35:54.594Z,2.30
2019-05-06T08:38:25.796Z,1.80
2019-05-06T08:40:56.823Z,1.60
2019-05-06T08:43:27.824Z,1.70
2019-05-06T08:45:58.812Z,1.50
2019-05-06T08:48:32.393Z,1.62
2019-05-06T08:51:09.954Z,2.00
2019-05-06T08:54:05.892Z,1.87
2019-05-06T08:56:36.889Z,1.37
2019-05-06T08:59:07.885Z,1.60
2019-05-06T09:01:47.671Z,2.33
2019-05-06T09:04:18.741Z,1.62
2019-05-06T09:06:49.848Z,1.37
2019-05-06T09:09:22.378Z,1.60
2019-05-06T09:11:53.762Z,1.50
2019-05-06T09:14:24.868Z,1.50
2019-05-06T09:16:56.318Z,2.00
2019-05-06T09:19:27.363Z,2.10
2019-05-06T09:21:58.392Z,1.77
2019-05-06T09:24:31.941Z,2.03
2019-05-06T09:27:13.391Z,2.33
2019-05-06T09:29:51.980Z,1.20
2019-05-06T09:32:26.497Z,1.57
2019-05-06T09:34:58.946Z,1.77
2019-05-06T09:37:32.351Z,1.50
2019-05-06T09:40:03.091Z,2.60
2019-05-06T09:42:34.550Z,1.57
2019-05-06T09:45:06.867Z,2.13
2019-05-06T09:48:03.118Z,1.80
2019-05-06T09:50:46.804Z,1.73
2019-05-06T09:53:29.843Z,1.90
2019-05-06T09:56:19.098Z,1.50
2019-05-06T09:58:52.746Z,1.57
2019-05-06T10:01:23.022Z,2.67
2019-05-06T10:03:54.080Z,2.93
2019-05-06T10:06:25.208Z,3.00
2019-05-06T10:08:56.355Z,1.80
2019-05-06T10:11:27.427Z,2.17
2019-05-06T10:13:58.645Z,1.53
2019-05-06T10:16:32.458Z,2.03
2019-05-06T10:19:03.341Z,2.40
2019-05-06T10:21:34.504Z,2.30
2019-05-06T10:24:05.936Z,1.93
2019-05-06T10:26:43.215Z,2.13
2019-05-06T10:29:32.602Z,2.02
2019-05-06T10:32:27.187Z,1.50
2019-05-06T10:34:58.392Z,1.60
2019-05-06T10:38:17.292Z,1.87
2019-05-06T10:41:02.851Z,1.63
2019-05-06T10:43:36.136Z,1.90
2019-05-06T10:46:07.353Z,1.72
2019-05-06T10:48:38.637Z,1.57
2019-05-06T10:51:18.881Z,1.80
2019-05-06T10:53:50.928Z,2.17
2019-05-06T10:56:50.687Z,1.30
2019-05-06T10:59:14.317Z,1.55
2019-05-06T11:01:47.383Z,1.53
2019-05-06T11:04:18.479Z,1.90
2019-05-06T11:06:52.379Z,1.40
2019-05-06T11:09:22.840Z,1.70
2019-05-06T11:11:53.853Z,1.70
2019-05-06T11:14:24.938Z,1.80
2019-05-06T11:16:55.968Z,2.13
2019-05-06T11:19:26.997Z,2.17
2019-05-06T11:21:58.121Z,2.10
2019-05-06T11:24:29.206Z,1.83
2019-05-06T11:27:00.241Z,2.60
2019-05-06T11:29:36.545Z,2.50
2019-05-06T11:32:12.868Z,3.43
2019-05-06T11:34:52.627Z,2.30
2019-05-06T11:37:50.190Z,2.70
2019-05-06T11:40:18.267Z,2.23
2019-05-06T11:42:49.425Z,2.83
2019-05-06T11:45:22.705Z,2.30
2019-05-06T11:47:55.749Z,1.97
2019-05-06T11:50:26.807Z,2.47
2019-05-06T11:52:57.896Z,2.30
2019-05-06T11:55:36.142Z,2.00
2019-05-06T11:58:03.075Z,1.80
2019-05-06T12:00:39.591Z,1.90
2019-05-06T12:03:12.739Z,1.95
2019-05-06T12:05:43.956Z,2.07
2019-05-06T12:08:15.766Z,2.40
2019-05-06T12:10:46.951Z,2.30
2019-05-06T12:13:17.990Z,2.13
2019-05-06T12:15:49.009Z,2.40
2019-05-06T12:18:22.927Z,2.20
2019-05-06T12:20:52.941Z,1.93
2019-05-06T12:23:24.912Z,2.12
2019-05-06T12:25:55.916Z,2.27
2019-05-06T12:28:26.996Z,1.90
2019-05-06T12:30:58.114Z,1.63
2019-05-06T12:33:35.328Z,1.92
2019-05-06T12:36:18.859Z,2.47
2019-05-06T12:39:14.874Z,1.53
2019-05-06T12:42:14.639Z,1.77
2019-05-06T12:45:13.088Z,1.72
2019-05-06T12:47:48.403Z,1.90
2019-05-06T12:50:19.660Z,2.13
2019-05-06T12:52:52.542Z,1.80
2019-05-06T12:55:25.659Z,2.30
2019-05-06T12:57:56.703Z,2.00
2019-05-06T13:00:29.728Z,2.30
2019-05-06T13:03:02.260Z,1.50
2019-05-06T13:05:33.466Z,2.40
2019-05-06T13:08:06.228Z,2.03
2019-05-06T13:10:37.185Z,1.60
2019-05-06T13:13:08.266Z,2.00
2019-05-06T13:15:43.242Z,1.50
2019-05-06T13:18:13.225Z,1.93
2019-05-06T13:20:49.407Z,1.60
2019-05-06T13:23:38.765Z,1.93
2019-05-06T13:26:09.937Z,1.70
2019-05-06T13:28:45.348Z,2.05
2019-05-06T13:31:21.271Z,1.80
2019-05-06T13:33:54.525Z,1.80
2019-05-06T13:36:25.596Z,1.37
2019-05-06T13:39:10.670Z,1.70
2019-05-06T13:41:29.494Z,1.30
2019-05-06T13:44:09.446Z,1.73
2019-05-06T13:46:45.207Z,1.60
2019-05-06T13:49:34.248Z,1.75
2019-05-06T13:52:07.397Z,1.23
2019-05-06T13:54:38.588Z,1.60
2019-05-06T13:57:12.241Z,1.67
2019-05-06T13:59:44.184Z,2.10
2019-05-06T14:02:27.355Z,2.00
2019-05-06T14:04:58.440Z,1.70
2019-05-06T14:07:29.454Z,2.08
2019-05-06T14:10:02.715Z,2.40
2019-05-06T14:12:34.203Z,1.70
2019-05-06T14:15:06.279Z,1.90
2019-05-06T14:17:37.434Z,1.70
2019-05-06T14:20:09.184Z,1.90
2019-05-06T14:22:40.370Z,1.80
2019-05-06T14:25:29.770Z,1.70
2019-05-06T14:28:06.190Z,1.65
2019-05-06T14:30:54.512Z,2.10
2019-05-06T14:33:25.520Z,1.60
2019-05-06T14:35:56.657Z,2.00
2019-05-06T14:38:28.034Z,2.17
2019-05-06T14:41:14.952Z,1.82
2019-05-06T14:43:45.957Z,1.72
2019-05-06T14:46:17.263Z,1.50
2019-05-06T14:48:48.421Z,2.10
2019-05-06T14:51:19.482Z,1.80
2019-05-06T14:53:52.975Z,1.33
2019-05-06T14:56:32.900Z,2.17
2019-05-06T14:59:04.682Z,1.87
2019-05-06T15:01:37.220Z,1.60
2019-05-06T15:04:08.401Z,2.33
2019-05-06T15:06:39.397Z,1.57
2019-05-06T15:09:13.379Z,1.40
2019-05-06T15:11:44.091Z,1.07
2019-05-06T15:14:15.172Z,1.60
2019-05-06T15:16:46.203Z,1.60
2019-05-06T15:19:17.291Z,1.20
2019-05-06T15:21:48.286Z,1.63
2019-05-06T15:24:21.900Z,1.70
2019-05-06T15:26:52.289Z,1.90
2019-05-06T15:29:23.831Z,1.70
2019-05-06T15:32:12.836Z,1.67
2019-05-06T15:35:08.197Z,0.97
2019-05-06T15:37:47.445Z,1.80
2019-05-06T15:40:31.073Z,1.45
2019-05-06T15:42:53.335Z,1.20
2019-05-06T15:45:24.734Z,1.07
2019-05-06T15:47:55.739Z,1.60
2019-05-06T15:50:26.890Z,1.37
2019-05-06T15:52:57.838Z,1.80
2019-05-06T15:55:28.944Z,1.37
2019-05-06T15:57:59.931Z,1.97
2019-05-06T16:00:33.034Z,1.43
2019-05-06T16:03:03.927Z,1.30
2019-05-06T16:05:34.957Z,1.37
2019-05-06T16:08:06.044Z,1.70
2019-05-06T16:10:51.402Z,1.35
2019-05-06T16:13:09.802Z,1.47
2019-05-06T16:15:42.441Z,1.23
2019-05-06T16:18:13.458Z,2.07
2019-05-06T16:20:44.453Z,1.40
2019-05-06T16:23:24.311Z,1.67
2019-05-06T16:25:55.446Z,1.43
2019-05-06T16:28:26.588Z,1.50
2019-05-06T16:30:57.734Z,1.30
2019-05-06T16:33:28.778Z,1.25
2019-05-06T16:35:59.831Z,1.30
2019-05-06T16:38:32.332Z,1.50
2019-05-06T16:41:12.775Z,1.83
2019-05-06T16:43:37.551Z,1.80
2019-05-06T16:46:08.987Z,1.33
2019-05-06T16:48:40.138Z,1.30
2019-05-06T16:51:12.568Z,1.40
2019-05-06T16:53:43.820Z,1.73
2019-05-06T16:56:33.260Z,1.20
2019-05-06T16:59:04.782Z,1.20
2019-05-06T17:01:37.464Z,1.53
2019-05-06T17:04:17.663Z,1.13
2019-05-06T17:06:48.658Z,1.40
2019-05-06T17:09:24.264Z,1.10
2019-05-06T17:11:52.476Z,1.33
2019-05-06T17:14:23.554Z,1.47
2019-05-06T17:16:54.647Z,1.20
2019-05-06T17:19:25.667Z,1.35
2019-05-06T17:21:56.838Z,1.60
2019-05-06T17:24:28.030Z,1.27
2019-05-06T17:26:59.040Z,1.73
2019-05-06T17:30:04.075Z,1.50
2019-05-06T17:32:37.760Z,1.40
2019-05-06T17:35:12.071Z,1.57
2019-05-06T17:38:02.231Z,1.43
2019-05-06T17:40:33.236Z,1.67
2019-05-06T17:43:04.467Z,1.30
2019-05-06T17:45:58.435Z,1.30
2019-05-06T17:48:32.839Z,1.97
2019-05-06T17:51:13.738Z,1.60
2019-05-06T17:53:52.304Z,1.30
2019-05-06T17:56:23.626Z,1.37
2019-05-06T17:58:54.643Z,1.50
2019-05-06T18:01:34.531Z,1.20
2019-05-06T18:04:06.108Z,1.67
2019-05-06T18:06:37.167Z,1.20
2019-05-06T18:09:09.678Z,1.23
2019-05-06T18:11:51.247Z,1.30
2019-05-06T18:14:15.677Z,1.90
2019-05-06T18:16:46.771Z,1.80
2019-05-06T18:19:17.928Z,1.73
2019-05-06T18:21:49.080Z,1.23
2019-05-06T18:24:20.113Z,2.03
2019-05-06T18:26:52.895Z,1.30
2019-05-06T18:29:23.993Z,2.20
2019-05-06T18:31:55.010Z,1.40
2019-05-06T18:34:26.132Z,1.42
2019-05-06T18:36:57.180Z,1.33
2019-05-06T18:39:28.202Z,1.37
2019-05-06T18:42:14.937Z,1.27
2019-05-06T18:44:33.271Z,1.83
2019-05-06T18:47:06.170Z,1.33
2019-05-06T18:49:37.185Z,1.70
2019-05-06T18:52:08.190Z,1.80
2019-05-06T18:54:39.379Z,1.50
2019-05-06T18:57:12.782Z,1.80
2019-05-06T18:59:43.681Z,1.93
2019-05-06T19:02:14.750Z,1.82
2019-05-06T19:04:56.758Z,1.90
2019-05-06T19:07:27.773Z,1.53
2019-05-06T19:10:03.517Z,2.10
2019-05-06T19:12:40.645Z,2.27
2019-05-06T19:15:08.615Z,1.60
2019-05-06T19:17:39.705Z,1.40
2019-05-06T19:20:11.723Z,3.12
2019-05-06T19:22:43.522Z,4.27
2019-05-06T19:25:15.146Z,3.05
2019-05-06T19:27:46.341Z,3.43
2019-05-06T19:30:18.006Z,1.62
2019-05-06T19:32:49.225Z,1.60
2019-05-06T19:35:20.343Z,1.47
2019-05-06T19:37:51.526Z,1.90
2019-05-06T19:40:22.976Z,1.20
2019-05-06T19:42:54.036Z,1.40
2019-05-06T19:45:25.180Z,1.30
2019-05-06T19:47:56.159Z,1.40
2019-05-06T19:50:27.366Z,1.37
2019-05-06T19:52:58.492Z,1.33
2019-05-06T19:55:29.498Z,1.27
2019-05-06T19:58:02.301Z,1.17
2019-05-06T20:00:33.456Z,1.60
2019-05-06T20:03:04.537Z,1.50
2019-05-06T20:05:41.702Z,1.33
2019-05-06T20:08:26.766Z,1.60
2019-05-06T20:11:15.021Z,1.40
2019-05-06T20:13:46.028Z,1.07
2019-05-06T20:16:17.062Z,1.17
2019-05-06T20:18:48.269Z,1.93
2019-05-06T20:21:19.590Z,1.63
2019-05-06T20:23:52.601Z,2.00
2019-05-06T20:26:23.363Z,1.50
2019-05-06T20:28:54.434Z,1.30
2019-05-06T20:31:25.661Z,1.50
2019-05-06T20:33:56.729Z,2.10
2019-05-06T20:36:28.013Z,1.33
2019-05-06T20:38:59.055Z,1.37
2019-05-06T20:41:30.026Z,1.57
2019-05-06T20:44:02.681Z,1.70
2019-05-06T20:46:33.796Z,1.33
2019-05-06T20:49:04.946Z,2.03
2019-05-06T20:51:35.964Z,1.83
2019-05-06T20:54:07.299Z,1.80
2019-05-06T20:56:38.303Z,1.67
2019-05-06T20:59:09.585Z,1.57
2019-05-06T21:01:42.509Z,1.60
2019-05-06T21:04:13.318Z,1.50
2019-05-06T21:06:44.584Z,2.03
2019-05-06T21:09:15.646Z,2.03
2019-05-06T21:11:46.846Z,1.97
2019-05-06T21:14:17.829Z,1.83
2019-05-06T21:16:48.820Z,1.77
2019-05-06T21:19:22.079Z,2.30
2019-05-06T21:21:52.849Z,1.97
2019-05-06T21:24:23.913Z,1.72
2019-05-06T21:26:54.939Z,1.70
2019-05-06T21:29:26.063Z,1.93
2019-05-06T21:31:57.148Z,1.70
2019-05-06T21:34:28.245Z,1.98
2019-05-06T21:37:02.847Z,2.10
2019-05-06T21:39:34.928Z,2.00
2019-05-06T21:42:07.551Z,2.10
2019-05-06T21:44:38.542Z,2.20
2019-05-06T21:47:09.548Z,2.43
2019-05-06T21:49:42.200Z,1.60
2019-05-06T21:52:13.386Z,1.60
2019-05-06T21:54:44.375Z,1.60
2019-05-06T21:57:15.419Z,1.90
2019-05-06T21:59:46.436Z,2.20
2019-05-06T22:02:19.943Z,1.77
2019-05-06T22:04:52.307Z,1.80
2019-05-06T22:07:24.689Z,3.47
2019-05-06T22:09:55.683Z,1.87
2019-05-06T22:12:26.791Z,1.90
2019-05-06T22:14:57.804Z,2.40
2019-05-06T22:17:28.872Z,2.05
2019-05-06T22:19:59.981Z,2.93
2019-05-06T22:22:32.828Z,2.60
2019-05-06T22:25:04.901Z,2.40
2019-05-06T22:27:36.060Z,1.67
2019-05-06T22:30:07.647Z,2.30
2019-05-06T22:32:47.837Z,2.97
2019-05-06T22:35:19.146Z,2.80
2019-05-06T22:37:52.733Z,1.67
2019-05-06T22:40:23.762Z,1.80
2019-05-06T22:42:55.034Z,1.53
2019-05-06T22:45:26.015Z,1.80
2019-05-06T22:47:57.065Z,1.98
2019-05-06T22:50:28.159Z,2.03
2019-05-06T22:52:59.433Z,1.90
2019-05-06T22:55:30.429Z,2.12
2019-05-06T22:58:02.517Z,2.23
2019-05-06T23:00:36.356Z,1.83
2019-05-06T23:03:12.365Z,1.90
2019-05-06T23:05:43.509Z,1.50
2019-05-06T23:08:14.763Z,1.60
2019-05-06T23:10:45.821Z,1.43
2019-05-06T23:13:16.814Z,1.90
2019-05-06T23:15:47.880Z,1.72
2019-05-06T23:18:19.041Z,1.43
2019-05-06T23:20:50.090Z,1.25
2019-05-06T23:23:22.263Z,2.05
2019-05-06T23:26:13.031Z,1.57
2019-05-06T23:28:43.871Z,1.57
2019-05-06T23:31:14.916Z,1.43
2019-05-06T23:33:46.358Z,1.80
2019-05-06T23:36:17.511Z,1.60
2019-05-06T23:39:58.740Z,1.53
2019-05-06T23:43:24.334Z,1.82
2019-05-06T23:46:52.306Z,1.67
2019-05-06T23:50:17.729Z,1.50
2019-05-06T23:53:43.000Z,1.97
2019-05-06T23:56:43.286Z,1.80
2019-05-06T23:59:16.112Z,1.67
